Time;durP1;ratioP1;P1;durP2;ratioP2;P2;SDS_P1;SDS_P2;PMS_P1;PMS_P2;Temp;Humidity;BMP_temperature;BMP_pressure;BME280_temperature;BME280_humidity;BME280_pressure;Samples;Min_cycle;Max_cycle;Signal;HPM_P1;HPM_P2
2022/10/14 00:01:16;;;;;;;51.65;21.48;;;7.90;99.90;;;;;;5013979;28;20029;-72
2022/10/14 00:03:42;;;;;;;39.65;17.90;;;7.90;99.90;;;;;;5014033;28;20034;-72
2022/10/14 00:06:12;;;;;;;40.05;20.90;;;7.80;99.90;;;;;;5014047;28;20101;-72
2022/10/14 00:08:40;;;;;;;39.60;20.08;;;7.90;99.90;;;;;;5014107;28;20032;-72
2022/10/14 00:11:12;;;;;;;34.55;18.65;;;7.90;99.90;;;;;;5013658;28;20072;-72
2022/10/14 00:13:38;;;;;;;31.80;18.05;;;7.90;99.90;;;;;;5012694;28;20030;-72
2022/10/14 00:16:05;;;;;;;30.17;17.70;;;7.90;99.90;;;;;;5014179;28;20022;-72
2022/10/14 00:18:31;;;;;;;36.90;19.33;;;7.80;99.90;;;;;;5014350;28;20034;-72
2022/10/14 00:20:58;;;;;;;49.42;18.08;;;7.80;99.90;;;;;;5013750;28;20397;-72
2022/10/14 00:23:24;;;;;;;54.80;19.58;;;7.80;99.90;;;;;;5012128;28;20101;-72
2022/10/14 00:25:50;;;;;;;55.20;19.77;;;7.80;99.90;;;;;;5013744;28;20030;-72
2022/10/14 00:28:15;;;;;;;52.78;20.00;;;7.90;99.90;;;;;;5014014;28;20519;-72
2022/10/14 00:30:41;;;;;;;51.33;18.73;;;7.90;99.90;;;;;;5013935;28;20084;-72
2022/10/14 00:33:07;;;;;;;55.83;19.85;;;8.00;99.90;;;;;;5013697;28;20026;-72
2022/10/14 00:35:32;;;;;;;48.28;19.38;;;8.10;99.90;;;;;;5013252;28;20057;-72
2022/10/14 00:37:58;;;;;;;58.03;18.65;;;8.10;99.90;;;;;;5013752;28;20022;-72
2022/10/14 00:40:25;;;;;;;40.13;15.23;;;8.00;99.90;;;;;;5013649;28;20022;-72
2022/10/14 00:42:51;;;;;;;35.28;14.70;;;8.00;99.90;;;;;;5013528;28;20107;-72
2022/10/14 00:45:22;;;;;;;38.38;16.25;;;7.90;99.90;;;;;;5011760;28;20030;-72
2022/10/14 00:47:51;;;;;;;31.98;12.90;;;7.80;99.90;;;;;;5013613;28;20061;-72
2022/10/14 00:50:18;;;;;;;32.80;13.82;;;7.70;99.90;;;;;;5012317;28;20026;-72
2022/10/14 00:52:44;;;;;;;28.73;13.32;;;7.70;99.90;;;;;;5013807;28;20022;-72
2022/10/14 00:55:14;;;;;;;34.33;13.18;;;7.70;99.90;;;;;;5013115;28;20022;-72
2022/10/14 00:57:40;;;;;;;35.33;13.27;;;7.60;99.90;;;;;;5013997;28;20373;-72
2022/10/14 01:00:09;;;;;;;18.88;10.38;;;7.60;99.90;;;;;;5013693;28;20030;-72
2022/10/14 01:02:35;;;;;;;38.88;8.75;;;7.60;99.90;;;;;;5013132;28;20037;-72
2022/10/14 01:05:02;;;;;;;19.42;8.88;;;7.50;99.90;;;;;;5015408;28;20030;-72
2022/10/14 01:07:45;;;;;;;21.50;11.35;;;7.50;99.90;;;;;;5016637;28;20025;-72
2022/10/14 01:10:18;;;;;;;41.70;15.50;;;7.60;99.90;;;;;;5017393;28;20033;-72
2022/10/14 01:13:10;;;;;;;48.63;15.83;;;7.80;99.90;;;;;;5016940;28;20030;-72
2022/10/14 01:16:08;;;;;;;31.27;13.38;;;7.90;99.90;;;;;;4997864;28;20258;-72
2022/10/14 01:19:05;;;;;;;57.28;17.58;;;8.10;99.90;;;;;;4969815;28;20489;-72
2022/10/14 01:21:41;;;;;;;44.05;15.38;;;8.20;99.90;;;;;;4997639;28;20034;-72
2022/10/14 01:24:32;;;;;;;43.55;17.83;;;8.30;99.90;;;;;;4997235;28;20034;-72
2022/10/14 01:27:17;;;;;;;39.67;14.00;;;8.30;99.90;;;;;;4995874;28;20547;-72
2022/10/14 01:30:05;;;;;;;54.75;17.25;;;8.20;99.90;;;;;;4995398;28;20030;-72
2022/10/14 01:32:52;;;;;;;40.97;16.38;;;8.10;99.90;;;;;;4997041;28;20030;-72
2022/10/14 01:35:23;;;;;;;33.35;14.18;;;8.00;99.90;;;;;;4997413;28;20027;-72
2022/10/14 01:38:17;;;;;;;29.90;12.77;;;7.90;99.90;;;;;;4996809;28;20073;-72
2022/10/14 01:40:51;;;;;;;36.47;14.15;;;7.80;99.90;;;;;;4995623;28;20022;-72
2022/10/14 01:43:20;;;;;;;34.20;12.75;;;7.80;99.90;;;;;;4997001;28;20066;-72
2022/10/14 01:45:48;;;;;;;35.30;14.23;;;7.80;99.90;;;;;;4997070;28;20030;-72
2022/10/14 01:48:17;;;;;;;24.42;10.43;;;7.70;99.90;;;;;;4996874;28;20441;-72
2022/10/14 01:50:45;;;;;;;26.17;11.63;;;7.80;99.90;;;;;;4996734;28;20026;-72
2022/10/14 01:53:19;;;;;;;24.05;8.20;;;7.60;99.90;;;;;;4997345;28;20022;-72
2022/10/14 01:55:46;;;;;;;23.15;11.63;;;7.50;99.90;;;;;;4997672;28;20030;-71
2022/10/14 01:58:15;;;;;;;22.25;9.90;;;7.50;99.90;;;;;;4996233;28;20026;-72
2022/10/14 02:00:40;;;;;;;12.32;6.80;;;7.50;99.90;;;;;;4997011;28;20023;-72
2022/10/14 02:03:06;;;;;;;26.00;7.90;;;7.40;99.90;;;;;;4996149;28;20026;-72
2022/10/14 02:05:56;;;;;;;13.95;5.93;;;7.40;99.90;;;;;;4996784;28;20026;-72
2022/10/14 02:08:34;;;;;;;20.30;8.35;;;7.30;99.90;;;;;;4997003;28;20027;-72
2022/10/14 02:11:10;;;;;;;16.83;7.38;;;7.30;99.90;;;;;;4996356;28;20036;-72
2022/10/14 02:14:15;;;;;;;29.42;7.82;;;7.20;99.90;;;;;;4996410;28;20038;-72
2022/10/14 02:16:57;;;;;;;18.27;6.80;;;7.20;99.90;;;;;;4995360;28;20118;-72
2022/10/14 02:19:34;;;;;;;13.00;6.43;;;7.10;99.90;;;;;;4996391;28;20034;-72
2022/10/14 02:22:40;;;;;;;12.18;6.25;;;7.10;99.90;;;;;;4996212;28;20563;-72
2022/10/14 02:25:18;;;;;;;18.65;7.10;;;7.10;99.90;;;;;;4993937;28;20046;-72
2022/10/14 02:27:46;;;;;;;13.85;6.75;;;7.10;99.90;;;;;;4996380;28;20113;-72
2022/10/14 02:30:13;;;;;;;15.95;3.75;;;7.10;99.90;;;;;;4995857;28;20034;-72
2022/10/14 02:32:40;;;;;;;5.60;2.60;;;7.00;99.90;;;;;;4995680;28;20387;-72
2022/10/14 02:35:08;;;;;;;19.98;5.22;;;7.00;99.90;;;;;;4995998;28;20022;-72
2022/10/14 02:37:34;;;;;;;13.05;5.40;;;7.00;99.90;;;;;;4995855;28;20022;-72
2022/10/14 02:40:07;;;;;;;13.82;5.78;;;7.00;99.90;;;;;;4995368;28;20391;-72
2022/10/14 02:42:33;;;;;;;14.00;5.35;;;7.00;99.90;;;;;;4995491;28;20041;-72
2022/10/14 02:45:00;;;;;;;26.85;8.63;;;7.00;99.90;;;;;;5009967;28;20401;-72
2022/10/14 02:47:26;;;;;;;35.70;9.93;;;7.10;99.90;;;;;;5015162;28;20037;-72
2022/10/14 02:49:51;;;;;;;22.42;7.70;;;7.20;99.90;;;;;;5014935;28;20038;-72
2022/10/14 02:52:17;;;;;;;11.82;6.65;;;7.10;99.90;;;;;;5014998;28;20040;-72
2022/10/14 02:54:43;;;;;;;8.57;5.10;;;7.10;99.90;;;;;;5015096;28;20025;-72
2022/10/14 02:57:09;;;;;;;57.28;4.90;;;7.00;99.90;;;;;;5015353;28;20021;-72
2022/10/14 02:59:35;;;;;;;19.95;7.43;;;7.00;99.90;;;;;;5015010;28;20037;-72
2022/10/14 03:02:01;;;;;;;17.75;6.45;;;7.00;99.90;;;;;;5014958;28;20053;-72
2022/10/14 03:04:26;;;;;;;15.60;7.32;;;7.00;99.90;;;;;;5014418;28;20104;-72
2022/10/14 03:06:52;;;;;;;16.88;7.65;;;6.90;99.90;;;;;;5014798;28;20013;-72
2022/10/14 03:09:18;;;;;;;17.15;6.88;;;7.00;99.90;;;;;;5014920;28;20040;-72
2022/10/14 03:11:44;;;;;;;11.32;4.90;;;6.90;99.90;;;;;;5013479;28;20029;-72
2022/10/14 03:14:09;;;;;;;11.13;5.03;;;6.80;99.90;;;;;;5014173;28;20104;-72
2022/10/14 03:16:35;;;;;;;17.40;4.22;;;6.80;99.90;;;;;;5014868;28;20022;-71
2022/10/14 03:19:00;;;;;;;33.58;7.90;;;6.80;99.90;;;;;;5014809;28;20516;-72
2022/10/14 03:21:26;;;;;;;18.15;8.05;;;6.70;99.90;;;;;;5015125;28;20112;-72
2022/10/14 03:23:51;;;;;;;19.48;7.43;;;6.80;99.90;;;;;;5014065;28;20072;-72
2022/10/14 03:26:17;;;;;;;26.17;7.47;;;6.80;99.90;;;;;;5014277;28;20018;-72
2022/10/14 03:28:43;;;;;;;20.90;8.25;;;6.90;99.90;;;;;;5014053;28;20033;-72
2022/10/14 03:31:08;;;;;;;27.60;7.25;;;6.90;99.90;;;;;;5014412;28;20046;-72
2022/10/14 03:33:34;;;;;;;20.38;6.93;;;6.90;99.90;;;;;;5014519;28;20434;-72
2022/10/14 03:35:59;;;;;;;19.95;7.53;;;6.80;99.90;;;;;;5014112;28;20072;-72
2022/10/14 03:38:25;;;;;;;12.05;5.13;;;6.80;99.90;;;;;;5014304;28;20018;-72
2022/10/14 03:40:51;;;;;;;16.55;5.78;;;6.70;99.90;;;;;;5030173;23;20374;-73
2022/10/14 03:43:16;;;;;;;16.17;6.25;;;6.60;99.90;;;;;;5033999;28;20030;-70
2022/10/14 03:45:44;;;;;;;10.15;4.90;;;6.60;99.90;;;;;;5033456;28;20108;-70
2022/10/14 03:48:09;;;;;;;7.88;4.05;;;6.50;99.90;;;;;;5033634;28;20075;-69
2022/10/14 03:50:35;;;;;;;8.75;4.15;;;6.60;99.90;;;;;;5033768;28;20037;-69
2022/10/14 03:53:00;;;;;;;6.63;4.15;;;6.60;99.90;;;;;;5033066;28;20022;-70
2022/10/14 03:55:26;;;;;;;7.10;3.75;;;6.50;99.90;;;;;;5033536;28;20025;-70
2022/10/14 03:57:51;;;;;;;10.65;4.03;;;6.50;99.90;;;;;;5033535;28;20396;-69
2022/10/14 04:00:17;;;;;;;8.00;3.58;;;6.40;99.90;;;;;;5033475;28;20477;-70
2022/10/14 04:02:43;;;;;;;20.38;7.18;;;6.50;99.90;;;;;;5033422;28;20463;-70
2022/10/14 04:05:09;;;;;;;23.65;8.10;;;6.50;99.90;;;;;;5033051;28;20026;-70
2022/10/14 04:07:34;;;;;;;24.95;8.68;;;6.70;99.90;;;;;;5033692;28;20034;-69
2022/10/14 04:10:00;;;;;;;32.30;9.05;;;7.00;99.90;;;;;;5033152;28;20499;-70
2022/10/14 04:12:26;;;;;;;24.05;7.90;;;7.20;99.90;;;;;;5033340;28;20464;-69
2022/10/14 04:14:51;;;;;;;23.40;8.35;;;7.40;99.90;;;;;;5032819;28;20021;-70
2022/10/14 04:17:17;;;;;;;31.50;9.30;;;7.50;99.90;;;;;;5033847;28;20018;-70
2022/10/14 04:19:43;;;;;;;40.17;10.68;;;7.70;99.90;;;;;;5033524;28;20021;-70
2022/10/14 04:22:09;;;;;;;29.50;11.07;;;7.90;99.90;;;;;;5033198;28;20033;-70
2022/10/14 04:24:34;;;;;;;41.67;13.05;;;8.10;99.90;;;;;;5033462;28;20030;-69
2022/10/14 04:27:00;;;;;;;42.72;12.70;;;8.30;99.90;;;;;;5033684;28;20052;-70
2022/10/14 04:29:26;;;;;;;40.13;13.82;;;8.40;99.90;;;;;;5032787;28;20029;-70
2022/10/14 04:31:51;;;;;;;49.90;16.48;;;8.50;99.90;;;;;;5033079;28;20388;-70
2022/10/14 04:34:17;;;;;;;35.92;14.75;;;8.50;99.90;;;;;;5033066;28;20032;-70
2022/10/14 04:36:42;;;;;;;32.15;14.45;;;8.60;99.90;;;;;;5033077;28;20064;-69
2022/10/14 04:39:08;;;;;;;38.75;16.98;;;8.60;99.90;;;;;;5035492;28;20025;-70
2022/10/14 04:41:33;;;;;;;58.38;18.73;;;8.70;99.90;;;;;;5037136;28;20412;-70
2022/10/14 04:43:59;;;;;;;43.22;18.52;;;8.80;99.90;;;;;;5036575;28;20392;-70
2022/10/14 04:46:24;;;;;;;56.13;20.45;;;8.90;99.90;;;;;;5037180;28;20484;-70
2022/10/14 04:48:50;;;;;;;66.32;20.13;;;9.00;99.90;;;;;;5037272;28;20041;-70
2022/10/14 04:51:15;;;;;;;53.75;19.75;;;9.00;99.90;;;;;;5036997;28;20026;-70
2022/10/14 04:53:41;;;;;;;40.88;19.38;;;9.10;99.90;;;;;;5036415;28;20028;-71
2022/10/14 04:56:07;;;;;;;56.08;20.45;;;9.10;99.90;;;;;;5037085;28;20472;-70
2022/10/14 04:58:32;;;;;;;60.65;21.77;;;9.10;99.90;;;;;;5036830;28;20029;-69
2022/10/14 05:00:58;;;;;;;58.05;21.70;;;9.10;99.90;;;;;;5036719;28;20044;-70
2022/10/14 05:03:23;;;;;;;54.08;23.33;;;9.20;99.90;;;;;;5036206;28;20037;-70
2022/10/14 05:05:50;;;;;;;57.85;24.05;;;9.30;99.90;;;;;;5036804;28;20029;-70
2022/10/14 05:08:16;;;;;;;61.55;24.00;;;9.30;99.90;;;;;;5036912;28;20036;-69
2022/10/14 05:10:42;;;;;;;67.30;25.70;;;9.30;99.90;;;;;;5036432;28;20033;-70
2022/10/14 05:13:07;;;;;;;85.20;29.08;;;9.40;99.90;;;;;;5036010;28;20020;-70
2022/10/14 05:15:33;;;;;;;67.18;26.45;;;9.40;99.90;;;;;;5036480;28;20100;-70
2022/10/14 05:17:59;;;;;;;63.95;26.13;;;9.50;99.90;;;;;;5036818;28;20025;-69
2022/10/14 05:20:24;;;;;;;80.93;31.15;;;9.50;99.90;;;;;;5037213;28;20105;-69
2022/10/14 05:22:50;;;;;;;92.93;32.08;;;9.50;99.90;;;;;;5035837;28;20049;-70
2022/10/14 05:25:15;;;;;;;82.55;28.83;;;9.50;99.90;;;;;;5036196;28;20032;-70
2022/10/14 05:27:41;;;;;;;85.90;31.55;;;9.50;99.90;;;;;;5036273;28;20026;-70
2022/10/14 05:30:07;;;;;;;82.20;31.58;;;9.50;99.90;;;;;;5034887;28;20068;-70
2022/10/14 05:32:33;;;;;;;89.75;32.92;;;9.50;99.90;;;;;;5036141;28;20075;-70
2022/10/14 05:34:58;;;;;;;98.35;32.42;;;9.60;99.90;;;;;;5035625;28;20100;-70
2022/10/14 05:37:24;;;;;;;99.18;33.67;;;9.60;99.90;;;;;;5036093;28;20029;-69
2022/10/14 05:39:49;;;;;;;78.22;29.25;;;9.60;99.90;;;;;;5036339;28;20033;-69
2022/10/14 05:42:15;;;;;;;76.32;28.52;;;9.60;99.90;;;;;;5035887;28;20040;-71
2022/10/14 05:44:40;;;;;;;93.25;33.80;;;9.50;99.90;;;;;;5036167;28;20473;-70
2022/10/14 05:47:06;;;;;;;87.55;31.10;;;9.60;99.90;;;;;;5035948;28;20416;-70
2022/10/14 05:49:31;;;;;;;72.93;29.92;;;9.60;99.90;;;;;;5034807;28;20033;-70
2022/10/14 05:51:57;;;;;;;87.68;34.17;;;9.50;99.90;;;;;;5036012;28;20029;-71
2022/10/14 05:54:22;;;;;;;86.20;32.30;;;9.60;99.90;;;;;;5036630;28;20029;-70
2022/10/14 05:56:48;;;;;;;99.30;32.75;;;9.50;99.90;;;;;;5036043;28;20024;-70
2022/10/14 05:59:13;;;;;;;87.70;30.75;;;9.40;99.90;;;;;;5035237;28;20026;-71
2022/10/14 06:01:39;;;;;;;101.28;34.00;;;9.40;99.90;;;;;;5035568;28;20017;-71
2022/10/14 06:04:05;;;;;;;104.88;36.75;;;9.40;99.90;;;;;;5035596;28;20541;-70
2022/10/14 06:06:31;;;;;;;123.90;36.25;;;9.40;99.90;;;;;;5034991;28;20022;-71
2022/10/14 06:08:56;;;;;;;98.70;33.42;;;9.30;99.90;;;;;;5035770;28;20021;-70
2022/10/14 06:11:22;;;;;;;101.60;35.22;;;9.30;99.90;;;;;;5035445;28;20036;-70
2022/10/14 06:13:48;;;;;;;115.65;35.33;;;9.30;99.90;;;;;;5035218;28;20443;-71
2022/10/14 06:16:14;;;;;;;173.00;38.22;;;9.30;99.90;;;;;;5035405;28;20036;-70
2022/10/14 06:18:40;;;;;;;124.70;35.08;;;9.30;99.90;;;;;;5035367;28;20025;-70
2022/10/14 06:21:06;;;;;;;266.85;37.70;;;9.40;99.90;;;;;;5034747;28;20083;-70
2022/10/14 06:23:32;;;;;;;528.97;45.13;;;9.50;99.90;;;;;;5035526;28;20425;-70
2022/10/14 06:25:58;;;;;;;508.58;46.75;;;9.60;99.90;;;;;;5035444;28;20060;-70
2022/10/14 06:28:24;;;;;;;154.68;32.20;;;9.70;99.90;;;;;;5035165;28;20026;-70
2022/10/14 06:30:53;;;;;;;316.75;37.95;;;9.80;99.90;;;;;;5035569;28;20048;-70
2022/10/14 06:33:19;;;;;;;326.58;38.72;;;9.90;99.90;;;;;;5034758;28;20026;-70
2022/10/14 06:35:46;;;;;;;189.00;35.72;;;10.00;99.90;;;;;;5035306;28;20392;-69
2022/10/14 06:38:12;;;;;;;323.98;42.17;;;10.10;99.90;;;;;;5034981;28;20096;-70
2022/10/14 06:40:38;;;;;;;306.60;40.65;;;10.10;99.90;;;;;;5034878;28;20029;-70
2022/10/14 06:43:04;;;;;;;196.25;36.22;;;10.20;99.90;;;;;;5034638;28;20404;-70
2022/10/14 06:45:29;;;;;;;522.70;50.78;;;10.30;99.90;;;;;;5035370;28;20033;-70
2022/10/14 06:47:56;;;;;;;192.20;40.80;;;10.30;99.90;;;;;;5034546;28;20030;-70
2022/10/14 06:50:21;;;;;;;298.02;45.50;;;10.40;99.90;;;;;;5034704;28;20027;-70
2022/10/14 06:52:47;;;;;;;342.63;46.47;;;10.40;99.90;;;;;;5034917;28;20048;-70
2022/10/14 06:55:14;;;;;;;294.13;47.45;;;10.50;99.90;;;;;;5034637;28;20047;-70
2022/10/14 06:57:40;;;;;;;185.40;44.13;;;10.50;99.90;;;;;;5033927;28;20032;-70
2022/10/14 07:00:06;;;;;;;393.50;48.00;;;10.60;99.90;;;;;;5034247;28;20021;-70
2022/10/14 07:02:32;;;;;;;141.45;41.72;;;10.60;99.90;;;;;;5033505;28;20404;-70
2022/10/14 07:04:57;;;;;;;523.65;53.13;;;10.70;99.90;;;;;;5034229;28;20029;-70
2022/10/14 07:07:23;;;;;;;402.35;54.65;;;10.70;99.90;;;;;;5034263;28;20032;-70
2022/10/14 07:09:49;;;;;;;352.00;50.83;;;10.70;99.90;;;;;;5033896;28;20108;-70
2022/10/14 07:12:14;;;;;;;236.75;44.08;;;10.80;99.90;;;;;;5034199;28;20021;-70
2022/10/14 07:14:40;;;;;;;171.02;44.42;;;10.80;99.90;;;;;;5034195;28;20020;-70
2022/10/14 07:17:07;;;;;;;262.58;50.50;;;10.90;99.90;;;;;;5034325;28;20037;-70
2022/10/14 07:19:33;;;;;;;179.68;48.30;;;10.90;99.90;;;;;;5034248;28;20032;-71
2022/10/14 07:21:58;;;;;;;266.85;50.78;;;11.10;99.90;;;;;;5034010;28;20037;-70
2022/10/14 07:24:24;;;;;;;376.77;55.08;;;11.10;99.90;;;;;;5034314;28;20029;-70
2022/10/14 07:26:50;;;;;;;381.42;53.15;;;11.10;99.90;;;;;;5034011;28;20108;-70
2022/10/14 07:29:15;;;;;;;191.90;47.30;;;11.10;99.90;;;;;;5033892;28;20025;-70
2022/10/14 07:31:41;;;;;;;171.93;46.83;;;11.10;99.90;;;;;;5033341;28;20480;-70
2022/10/14 07:34:06;;;;;;;190.25;47.88;;;11.20;99.90;;;;;;5033928;28;20037;-70
2022/10/14 07:36:32;;;;;;;260.73;49.38;;;11.30;99.90;;;;;;5033734;28;20030;-71
2022/10/14 07:38:58;;;;;;;279.10;50.63;;;11.30;99.90;;;;;;5033806;28;20083;-70
2022/10/14 07:41:24;;;;;;;196.27;47.83;;;11.20;99.90;;;;;;5033090;28;20057;-71
2022/10/14 07:43:56;;;;;;;185.02;47.28;;;11.20;99.90;;;;;;5033471;28;20370;-71
2022/10/14 07:46:28;;;;;;;193.07;47.33;;;11.30;99.90;;;;;;5033735;28;20029;-70
2022/10/14 07:49:06;;;;;;;270.35;54.17;;;11.30;99.90;;;;;;5033152;28;20040;-71
2022/10/14 07:51:33;;;;;;;179.00;47.67;;;11.40;99.90;;;;;;5033772;28;20030;-71
2022/10/14 07:54:01;;;;;;;203.63;49.33;;;11.40;99.90;;;;;;5034101;28;20032;-71
2022/10/14 07:56:27;;;;;;;225.02;50.80;;;11.40;99.90;;;;;;5033802;28;20392;-71
2022/10/14 07:58:53;;;;;;;222.50;53.47;;;11.60;99.90;;;;;;5033067;28;20017;-71
2022/10/14 08:01:19;;;;;;;231.10;53.33;;;11.60;99.90;;;;;;5033421;28;20034;-70
2022/10/14 08:03:46;;;;;;;231.88;50.85;;;11.60;99.90;;;;;;5033567;28;20044;-71
2022/10/14 08:06:12;;;;;;;211.95;52.72;;;11.60;99.90;;;;;;5033739;28;20028;-70
2022/10/14 08:08:38;;;;;;;220.75;54.25;;;11.60;99.90;;;;;;5033254;28;20025;-70
2022/10/14 08:11:12;;;;;;;218.43;55.47;;;11.70;99.90;;;;;;5032736;28;20033;-71
2022/10/14 08:13:39;;;;;;;241.57;54.55;;;11.80;99.90;;;;;;5033206;28;20028;-71
2022/10/14 08:16:22;;;;;;;193.55;48.63;;;11.90;99.90;;;;;;5033545;28;20040;-70
2022/10/14 08:18:48;;;;;;;222.23;50.88;;;12.10;99.90;;;;;;5033560;28;20028;-70
2022/10/14 08:21:15;;;;;;;210.75;52.22;;;12.20;99.90;;;;;;5032615;28;20036;-71
2022/10/14 08:23:41;;;;;;;260.10;57.92;;;12.40;99.90;;;;;;5033169;28;20082;-70
2022/10/14 08:26:27;;;;;;;190.45;53.55;;;12.30;99.90;;;;;;5033021;28;20033;-70
2022/10/14 08:28:53;;;;;;;201.45;54.03;;;12.40;99.90;;;;;;5033408;28;20033;-70
2022/10/14 08:31:19;;;;;;;219.82;52.42;;;12.50;99.90;;;;;;5032584;28;20033;-71
2022/10/14 08:33:45;;;;;;;201.43;52.58;;;12.50;99.90;;;;;;5033097;28;20507;-70
2022/10/14 08:36:11;;;;;;;190.02;50.10;;;12.60;99.90;;;;;;5033347;28;20029;-70
2022/10/14 08:38:37;;;;;;;178.75;46.83;;;12.50;99.90;;;;;;5032911;28;20029;-71
2022/10/14 08:41:11;;;;;;;192.80;53.28;;;12.50;99.90;;;;;;5033081;28;20045;-70
2022/10/14 08:43:58;;;;;;;174.32;48.15;;;12.50;99.90;;;;;;5033438;28;20026;-72
2022/10/14 08:46:33;;;;;;;160.13;48.38;;;12.60;99.90;;;;;;5032394;28;20025;-71
2022/10/14 08:49:09;;;;;;;164.55;48.58;;;12.60;99.90;;;;;;5032729;28;20064;-71
2022/10/14 08:51:35;;;;;;;159.55;49.33;;;12.60;99.90;;;;;;5033200;28;20036;-71
2022/10/14 08:54:10;;;;;;;180.35;50.72;;;12.80;99.90;;;;;;5032905;28;20018;-71
2022/10/14 08:56:36;;;;;;;157.35;48.00;;;12.70;99.90;;;;;;5033054;28;20464;-71
2022/10/14 08:59:11;;;;;;;175.45;48.92;;;13.00;99.90;;;;;;5032278;28;20018;-71
2022/10/14 09:01:52;;;;;;;130.65;44.17;;;13.10;99.90;;;;;;5032807;28;20365;-71
2022/10/14 09:04:18;;;;;;;134.43;42.70;;;13.20;99.90;;;;;;5033411;28;20552;-70
2022/10/14 09:06:47;;;;;;;115.75;36.33;;;12.80;99.90;;;;;;5032796;28;20025;-71
2022/10/14 09:09:34;;;;;;;115.05;38.33;;;12.50;99.90;;;;;;5032729;28;20101;-71
2022/10/14 09:12:04;;;;;;;107.55;36.25;;;12.20;99.90;;;;;;5032662;28;20136;-71
2022/10/14 09:14:44;;;;;;;113.30;38.33;;;12.00;99.90;;;;;;5033281;28;20076;-74
2022/10/14 09:17:26;;;;;;;119.38;37.88;;;12.00;99.90;;;;;;5033058;28;20017;-72
2022/10/14 09:20:06;;;;;;;113.43;36.85;;;12.30;99.90;;;;;;5032831;28;20483;-72
2022/10/14 09:22:32;;;;;;;104.72;37.40;;;12.40;99.90;;;;;;5032666;28;20036;-71
2022/10/14 09:24:58;;;;;;;99.55;34.40;;;12.40;99.90;;;;;;5032639;28;20021;-71
2022/10/14 09:27:23;;;;;;;108.65;37.38;;;12.70;99.90;;;;;;5036643;28;20021;-72
2022/10/14 09:30:00;;;;;;;113.35;37.33;;;12.70;99.90;;;;;;5036292;28;20442;-72
2022/10/14 09:32:49;;;;;;;95.68;33.97;;;12.80;99.90;;;;;;5036298;28;20108;-72
2022/10/14 09:35:23;;;;;;;87.13;30.63;;;12.90;99.90;;;;;;5036331;28;20080;-72
2022/10/14 09:37:49;;;;;;;73.82;29.75;;;12.80;99.90;;;;;;5035750;28;20025;-72
2022/10/14 09:40:20;;;;;;;64.35;27.95;;;12.90;99.90;;;;;;5036326;28;20038;-72
2022/10/14 09:43:12;;;;;;;71.72;26.80;;;13.30;99.90;;;;;;5089733;23;20046;-76
2022/10/14 09:45:55;;;;;;;72.47;27.65;;;13.60;99.90;;;;;;5036965;28;20071;-75
2022/10/14 09:48:38;;;;;;;53.70;25.45;;;13.40;99.90;;;;;;5036709;28;20449;-76
2022/10/14 09:51:07;;;;;;;58.20;25.88;;;13.20;99.90;;;;;;5036931;28;20021;-75
2022/10/14 09:53:48;;;;;;;56.88;25.13;;;13.30;99.90;;;;;;5036675;28;20030;-75
2022/10/14 09:56:14;;;;;;;65.45;24.83;;;13.30;99.90;;;;;;5036867;28;20128;-73
2022/10/14 09:58:55;;;;;;;42.10;21.40;;;13.30;99.90;;;;;;5037933;28;20096;-73
2022/10/14 10:02:04;;;;;;;46.08;22.80;;;13.30;99.90;;;;;;5037580;28;20068;-73
2022/10/14 10:04:46;;;;;;;49.53;22.40;;;13.60;99.90;;;;;;5037884;28;20036;-75
2022/10/14 10:07:35;;;;;;;52.92;21.27;;;13.70;99.90;;;;;;5036762;28;20026;-74
2022/10/14 10:10:17;;;;;;;38.13;17.70;;;13.90;99.90;;;;;;5034589;28;20029;-73
2022/10/14 10:12:45;;;;;;;33.22;17.17;;;14.20;99.90;;;;;;5036385;28;20070;-74
2022/10/14 10:15:17;;;;;;;43.40;18.48;;;14.40;99.90;;;;;;5035331;28;20112;-75
2022/10/14 10:17:44;;;;;;;40.05;16.25;;;14.60;99.90;;;;;;5036791;28;20025;-74
2022/10/14 10:20:27;;;;;;;31.70;14.90;;;14.80;99.90;;;;;;5036404;28;20113;-74
2022/10/14 10:22:55;;;;;;;33.90;15.20;;;14.80;99.90;;;;;;5034381;28;20493;-74
2022/10/14 10:25:27;;;;;;;33.58;14.20;;;14.80;99.90;;;;;;5036341;28;20029;-74
2022/10/14 10:27:56;;;;;;;26.23;13.43;;;14.70;99.90;;;;;;5036701;28;20026;-74
2022/10/14 10:30:28;;;;;;;31.70;15.40;;;14.70;99.90;;;;;;5035903;28;20030;-75
2022/10/14 10:33:06;;;;;;;25.63;13.70;;;14.80;99.90;;;;;;5035750;28;20029;-75
2022/10/14 10:36:03;;;;;;;24.38;11.40;;;14.80;99.90;;;;;;5035992;28;20354;-75
2022/10/14 10:38:58;;;;;;;34.45;12.10;;;14.60;99.90;;;;;;5036026;28;20032;-75
2022/10/14 10:41:52;;;;;;;29.88;11.40;;;14.30;99.90;;;;;;5031106;28;20498;-75
2022/10/14 10:44:39;;;;;;;21.23;10.43;;;14.30;99.90;;;;;;5035185;28;20036;-75
2022/10/14 10:47:17;;;;;;;24.63;12.13;;;14.50;99.90;;;;;;5035817;28;20018;-75
2022/10/14 10:50:08;;;;;;;26.33;12.10;;;14.80;99.90;;;;;;5035746;28;20392;-75
2022/10/14 10:52:48;;;;;;;21.50;11.77;;;15.00;99.90;;;;;;5035376;28;20552;-75
2022/10/14 10:55:34;;;;;;;27.63;12.07;;;15.40;99.90;;;;;;5035284;28;20488;-75
2022/10/14 10:58:10;;;;;;;25.73;10.27;;;15.50;99.90;;;;;;5035546;28;20499;-74
2022/10/14 11:01:04;;;;;;;30.73;9.88;;;15.90;99.90;;;;;;5035258;28;20069;-74
2022/10/14 11:04:06;;;;;;;23.80;9.48;;;16.20;99.90;;;;;;5035815;28;20022;-75
2022/10/14 11:12:42;;;;;;;21.20;8.33;;;17.00;99.90;;;;;;5034874;28;20032;-75
2022/10/14 11:15:22;;;;;;;16.80;7.32;;;17.40;99.90;;;;;;5034733;28;20485;-75
2022/10/14 11:18:01;;;;;;;23.25;7.88;;;17.40;99.90;;;;;;5035059;28;20030;-76
2022/10/14 11:20:50;;;;;;;15.23;6.07;;;17.30;99.90;;;;;;5034336;28;20029;-75
2022/10/14 11:23:28;;;;;;;18.33;7.45;;;17.10;99.90;;;;;;5034840;28;20079;-75
2022/10/14 11:25:56;;;;;;;23.15;8.65;;;17.00;99.90;;;;;;5034709;28;20032;-75
2022/10/14 11:28:37;;;;;;;15.15;7.85;;;16.90;99.90;;;;;;5033586;28;20038;-76
2022/10/14 11:31:25;;;;;;;21.75;8.35;;;17.10;99.90;;;;;;5034142;28;20480;-76
2022/10/14 11:34:07;;;;;;;13.98;8.10;;;17.10;99.90;;;;;;5033569;28;20028;-76
2022/10/14 11:36:44;;;;;;;20.45;8.57;;;17.30;99.90;;;;;;5034946;28;20025;-75
2022/10/14 11:39:36;;;;;;;14.77;6.53;;;17.40;99.90;;;;;;5034342;28;20033;-76
2022/10/14 11:42:15;;;;;;;18.05;6.75;;;17.10;99.90;;;;;;5034598;28;20102;-75
2022/10/14 11:44:42;;;;;;;17.75;6.28;;;16.50;99.90;;;;;;5015351;28;20432;-76
2022/10/14 11:47:21;;;;;;;13.82;5.32;;;16.30;99.90;;;;;;5015165;28;20026;-75
2022/10/14 11:50:20;;;;;;;10.75;4.95;;;16.20;99.90;;;;;;5014293;28;20113;-76
2022/10/14 11:52:51;;;;;;;15.02;5.47;;;15.90;99.90;;;;;;5033648;23;20076;-76
2022/10/14 11:55:22;;;;;;;20.08;5.78;;;16.20;99.90;;;;;;5034532;28;20116;-76
2022/10/14 11:58:19;;;;;;;18.70;5.00;;;16.20;99.90;;;;;;5034305;28;20014;-76
2022/10/14 12:01:16;;;;;;;12.45;5.20;;;16.10;99.90;;;;;;5034576;28;20033;-76
2022/10/14 12:04:01;;;;;;;9.70;4.55;;;16.50;99.90;;;;;;5013167;28;20461;-76
2022/10/14 12:06:45;;;;;;;15.38;5.22;;;17.00;99.90;;;;;;5013126;28;20033;-76
2022/10/14 12:09:15;;;;;;;12.05;4.80;;;17.40;99.90;;;;;;5013253;28;20072;-76
2022/10/14 12:11:52;;;;;;;14.63;4.68;;;17.50;99.90;;;;;;5013288;28;20042;-76
2022/10/14 12:14:38;;;;;;;22.60;5.72;;;17.40;99.90;;;;;;5012866;28;20105;-76
2022/10/14 12:17:10;;;;;;;17.35;5.20;;;17.40;99.90;;;;;;5014039;28;20101;-76
2022/10/14 12:19:36;;;;;;;10.47;3.43;;;18.10;99.90;;;;;;5014480;28;20030;-76
2022/10/14 12:22:16;;;;;;;8.55;3.15;;;18.70;99.90;;;;;;5014678;28;20026;-76
2022/10/14 12:24:54;;;;;;;15.82;3.55;;;19.10;99.90;;;;;;5013855;28;20018;-76
2022/10/14 12:27:22;;;;;;;12.35;3.22;;;19.10;99.90;;;;;;5014231;28;20033;-76
2022/10/14 12:29:50;;;;;;;11.02;3.08;;;19.50;99.90;;;;;;5014328;28;20022;-76
2022/10/14 12:32:15;;;;;;;11.88;3.75;;;19.50;99.90;;;;;;5012965;28;20033;-76
2022/10/14 12:34:42;;;;;;;12.88;3.75;;;19.70;99.90;;;;;;5014427;28;20022;-76
2022/10/14 12:37:36;;;;;;;10.40;3.60;;;19.40;99.90;;;;;;5012438;28;20026;-76
2022/10/14 12:40:02;;;;;;;11.48;3.10;;;19.90;99.90;;;;;;5014353;28;20026;-76
2022/10/14 12:42:34;;;;;;;11.93;2.80;;;20.40;99.90;;;;;;5014084;28;20026;-76
2022/10/14 12:45:15;;;;;;;13.32;2.70;;;21.20;99.90;;;;;;5014588;28;20436;-76
2022/10/14 12:47:42;;;;;;;5.85;2.25;;;21.60;99.90;;;;;;5012545;28;20090;-76
2022/10/14 12:50:14;;;;;;;9.63;2.97;;;21.80;99.90;;;;;;5014583;28;20473;-77
2022/10/14 12:52:45;;;;;;;7.07;2.63;;;21.50;99.90;;;;;;5014075;28;20037;-76
2022/10/14 12:55:20;;;;;;;8.75;2.20;;;21.10;99.90;;;;;;5014023;28;20101;-76
2022/10/14 12:57:59;;;;;;;6.13;2.20;;;21.30;99.90;;;;;;5013851;28;20018;-76
2022/10/14 13:00:24;;;;;;;8.55;2.30;;;20.90;99.90;;;;;;5016811;28;20080;-76